Time;durP1;ratioP1;P1;durP2;ratioP2;P2;SDS_P1;SDS_P2;PMS_P1;PMS_P2;Temp;Humidity;BMP_temperature;BMP_pressure;BME280_temperature;BME280_humidity;BME280_pressure;Samples;Min_cycle;Max_cycle;Signal;HPM_P1;HPM_P2
2022/02/19 00:01:37;;;;;;;10.20;2.20;;;6.30;99.90;;;;;;5052826;28;20017;-54
2022/02/19 00:04:04;;;;;;;6.22;1.48;;;6.30;99.90;;;;;;5051075;28;20410;-54
2022/02/19 00:06:30;;;;;;;11.50;1.65;;;6.30;99.90;;;;;;5052828;28;20031;-54
2022/02/19 00:08:56;;;;;;;12.57;2.13;;;6.30;99.90;;;;;;5053349;28;20037;-54
2022/02/19 00:11:22;;;;;;;14.05;2.10;;;6.20;99.90;;;;;;5052907;28;20040;-54
2022/02/19 00:13:47;;;;;;;11.10;1.50;;;6.10;99.90;;;;;;5053279;28;20031;-54
2022/02/19 00:16:13;;;;;;;14.57;2.30;;;6.00;99.90;;;;;;5052599;28;20029;-54
2022/02/19 00:18:39;;;;;;;13.27;2.53;;;6.00;99.90;;;;;;5052768;28;20238;-54
2022/02/19 00:21:04;;;;;;;9.55;2.40;;;5.90;99.90;;;;;;5052312;28;20021;-54
2022/02/19 00:23:30;;;;;;;12.25;1.90;;;5.90;99.90;;;;;;5052869;28;20276;-54
2022/02/19 00:25:57;;;;;;;13.20;2.00;;;5.80;99.90;;;;;;5053011;28;20017;-54
2022/02/19 00:28:23;;;;;;;11.75;2.20;;;5.80;99.90;;;;;;5052495;28;20028;-54
2022/02/19 00:30:49;;;;;;;12.23;2.05;;;5.70;99.90;;;;;;5053019;28;20049;-53
2022/02/19 00:33:15;;;;;;;11.00;2.28;;;5.80;99.90;;;;;;5052046;28;20123;-54
2022/02/19 00:35:41;;;;;;;22.17;2.50;;;5.80;99.90;;;;;;5052793;28;20048;-53
2022/02/19 00:38:06;;;;;;;14.82;2.45;;;5.80;99.90;;;;;;5052544;28;20470;-54
2022/02/19 00:40:32;;;;;;;8.32;2.30;;;5.70;99.90;;;;;;5052442;28;20104;-54
2022/02/19 00:42:58;;;;;;;14.13;1.92;;;5.70;99.90;;;;;;5051876;28;20053;-53
2022/02/19 00:45:23;;;;;;;12.98;2.28;;;5.70;99.90;;;;;;5052695;28;20529;-53
2022/02/19 00:47:49;;;;;;;12.02;1.80;;;5.80;99.90;;;;;;5052787;28;20025;-54
2022/02/19 00:50:15;;;;;;;12.32;2.28;;;5.80;99.90;;;;;;5052107;28;20104;-54
2022/02/19 00:52:40;;;;;;;7.68;1.40;;;5.80;99.90;;;;;;5052164;28;20036;-54
2022/02/19 00:55:07;;;;;;;14.35;2.00;;;5.90;99.90;;;;;;5052502;28;20025;-54
2022/02/19 00:57:32;;;;;;;11.57;2.13;;;5.80;99.90;;;;;;5051741;28;20417;-54
2022/02/19 00:59:58;;;;;;;11.82;1.83;;;5.80;99.90;;;;;;5052069;28;20027;-54
2022/02/19 01:02:24;;;;;;;12.55;2.00;;;5.80;99.90;;;;;;5052159;28;20028;-54
2022/02/19 01:04:49;;;;;;;15.48;2.20;;;5.70;99.90;;;;;;5052175;28;20029;-54
2022/02/19 01:07:15;;;;;;;8.07;1.95;;;5.60;99.90;;;;;;5052217;28;20021;-54
2022/02/19 01:09:40;;;;;;;9.82;1.27;;;5.60;99.90;;;;;;5052304;28;20048;-54
2022/02/19 01:12:06;;;;;;;8.75;1.27;;;5.60;99.90;;;;;;5052401;28;20020;-54
2022/02/19 01:14:32;;;;;;;9.77;1.70;;;5.60;99.90;;;;;;5051394;28;20367;-54
2022/02/19 01:16:58;;;;;;;4.22;1.30;;;5.60;99.90;;;;;;5051960;28;20133;-55
2022/02/19 01:19:25;;;;;;;9.57;1.60;;;5.60;99.90;;;;;;5051939;28;20025;-54
2022/02/19 01:21:51;;;;;;;6.75;1.52;;;5.60;99.90;;;;;;5051489;28;20485;-54
2022/02/19 01:24:17;;;;;;;8.38;1.23;;;5.60;99.90;;;;;;5051912;28;20031;-54
2022/02/19 01:26:42;;;;;;;10.27;2.33;;;5.50;99.90;;;;;;5051744;28;20063;-54
2022/02/19 01:29:08;;;;;;;14.18;1.85;;;5.50;99.90;;;;;;5051200;28;20458;-54
2022/02/19 01:31:33;;;;;;;10.93;1.98;;;5.50;99.90;;;;;;5051219;28;20033;-54
2022/02/19 01:33:59;;;;;;;7.63;1.45;;;5.50;99.90;;;;;;5051343;28;20040;-54
2022/02/19 01:36:25;;;;;;;7.60;1.50;;;5.40;99.90;;;;;;5051710;28;20319;-54
2022/02/19 01:38:50;;;;;;;9.02;1.55;;;5.40;99.90;;;;;;5051094;28;20029;-54
2022/02/19 01:41:16;;;;;;;8.32;1.38;;;5.30;99.90;;;;;;5050811;28;20540;-55
2022/02/19 01:43:42;;;;;;;13.35;1.60;;;5.30;99.90;;;;;;5050181;28;20072;-54
2022/02/19 01:46:08;;;;;;;7.80;1.80;;;5.30;99.90;;;;;;5051284;28;20418;-55
2022/02/19 01:48:33;;;;;;;10.35;1.65;;;5.20;99.90;;;;;;5051662;28;20119;-54
2022/02/19 01:50:59;;;;;;;10.50;1.52;;;5.10;99.90;;;;;;5051479;28;20100;-54
2022/02/19 01:53:25;;;;;;;14.05;1.60;;;5.10;99.90;;;;;;5051703;28;20078;-54
2022/02/19 01:55:54;;;;;;;12.68;1.60;;;5.10;99.90;;;;;;5051412;28;20153;-54
2022/02/19 01:58:21;;;;;;;6.63;1.20;;;5.10;99.90;;;;;;5051139;28;20116;-58
2022/02/19 02:00:47;;;;;;;9.85;2.25;;;5.10;99.90;;;;;;5051315;28;20472;-54
2022/02/19 02:03:12;;;;;;;7.80;1.67;;;5.00;99.90;;;;;;5050029;28;20049;-54
2022/02/19 02:05:38;;;;;;;10.07;1.48;;;5.00;99.90;;;;;;5051378;28;20028;-54
2022/02/19 02:08:07;;;;;;;7.45;1.13;;;5.00;99.90;;;;;;5051609;28;20039;-54
2022/02/19 02:10:34;;;;;;;10.60;2.17;;;5.00;99.90;;;;;;5051435;28;20026;-54
2022/02/19 02:13:04;;;;;;;6.28;1.42;;;4.90;99.90;;;;;;5051577;28;20545;-55
2022/02/19 02:15:31;;;;;;;8.98;1.75;;;4.90;99.90;;;;;;5051242;28;20021;-54
2022/02/19 02:17:58;;;;;;;11.07;1.85;;;4.90;99.90;;;;;;5050793;28;20140;-54
2022/02/19 02:20:24;;;;;;;9.55;2.45;;;4.90;99.90;;;;;;5051476;28;20036;-54
2022/02/19 02:22:50;;;;;;;11.73;1.48;;;4.80;99.90;;;;;;5051396;28;20506;-54
2022/02/19 02:25:26;;;;;;;5.60;1.25;;;4.80;99.90;;;;;;5051810;28;20108;-54
2022/02/19 02:27:52;;;;;;;16.50;1.85;;;4.80;99.90;;;;;;5054336;28;20078;-54
2022/02/19 02:30:18;;;;;;;7.07;1.30;;;4.80;99.90;;;;;;5054643;28;20428;-54
2022/02/19 02:32:43;;;;;;;6.80;1.40;;;4.80;99.90;;;;;;5055275;28;20029;-54
2022/02/19 02:35:09;;;;;;;5.38;1.48;;;4.80;99.90;;;;;;5054743;28;20474;-54
2022/02/19 02:37:35;;;;;;;9.32;1.65;;;4.80;99.90;;;;;;5054485;28;20160;-54
2022/02/19 02:40:00;;;;;;;8.60;1.65;;;4.80;99.90;;;;;;5052980;28;20163;-54
2022/02/19 02:42:26;;;;;;;10.85;1.83;;;4.80;99.90;;;;;;5054931;28;20053;-55
2022/02/19 02:44:52;;;;;;;9.10;1.13;;;4.70;99.90;;;;;;5054699;28;20028;-54
2022/02/19 02:47:18;;;;;;;9.93;2.08;;;4.80;99.90;;;;;;5054428;28;20025;-54
2022/02/19 02:49:43;;;;;;;11.85;1.58;;;4.80;99.90;;;;;;5053931;28;20479;-54
2022/02/19 02:52:09;;;;;;;12.45;1.52;;;4.70;99.90;;;;;;5054165;28;20524;-55
2022/02/19 02:54:36;;;;;;;9.60;1.38;;;4.70;99.90;;;;;;5054434;28;20029;-54
2022/02/19 02:57:02;;;;;;;12.43;1.85;;;4.70;99.90;;;;;;5053413;28;20029;-54
2022/02/19 02:59:28;;;;;;;9.98;1.52;;;4.70;99.90;;;;;;5053566;28;20389;-54
2022/02/19 03:01:53;;;;;;;16.38;2.10;;;4.70;99.90;;;;;;5054174;28;20104;-54
2022/02/19 03:04:19;;;;;;;7.18;1.38;;;4.60;99.90;;;;;;5053922;28;20025;-54
2022/02/19 03:06:45;;;;;;;12.35;1.80;;;4.60;99.90;;;;;;5054046;28;20060;-54
2022/02/19 03:09:10;;;;;;;8.52;1.80;;;4.60;99.90;;;;;;5053516;28;20040;-54
2022/02/19 03:11:36;;;;;;;11.20;1.55;;;4.50;99.90;;;;;;5053501;28;20013;-54
2022/02/19 03:14:05;;;;;;;6.55;1.48;;;4.60;99.90;;;;;;5054135;28;20052;-53
2022/02/19 03:16:31;;;;;;;6.95;1.70;;;4.60;99.90;;;;;;5053671;28;20112;-54
2022/02/19 03:18:57;;;;;;;8.35;1.88;;;4.60;99.90;;;;;;5053545;28;20436;-54
2022/02/19 03:21:23;;;;;;;13.40;2.17;;;4.60;99.90;;;;;;5053675;28;20021;-54
2022/02/19 03:23:48;;;;;;;9.23;1.80;;;4.60;99.90;;;;;;5053845;28;20021;-54
2022/02/19 03:26:14;;;;;;;9.00;1.70;;;4.70;99.90;;;;;;5053739;28;20087;-53
2022/02/19 03:28:40;;;;;;;14.98;2.17;;;4.60;99.90;;;;;;5053578;28;20569;-54
2022/02/19 03:31:05;;;;;;;16.60;3.55;;;4.60;99.90;;;;;;5053087;28;20465;-54
2022/02/19 03:33:31;;;;;;;16.15;2.33;;;4.60;99.90;;;;;;5052629;28;20032;-53
2022/02/19 03:35:56;;;;;;;8.10;1.63;;;4.50;99.90;;;;;;5053382;28;20021;-54
2022/02/19 03:38:22;;;;;;;11.63;2.15;;;4.60;99.90;;;;;;5051643;28;20028;-54
2022/02/19 03:40:48;;;;;;;11.25;2.33;;;4.60;99.90;;;;;;5052697;28;20029;-54
2022/02/19 03:43:14;;;;;;;12.60;1.92;;;4.60;99.90;;;;;;5053142;28;20032;-55
2022/02/19 03:45:43;;;;;;;11.55;2.03;;;4.50;99.90;;;;;;5053077;28;20104;-54
2022/02/19 03:48:10;;;;;;;15.48;2.28;;;4.60;99.90;;;;;;5053657;28;20024;-54
2022/02/19 03:50:36;;;;;;;13.50;1.92;;;4.50;99.90;;;;;;5053222;28;20422;-53
2022/02/19 03:53:02;;;;;;;15.73;2.35;;;4.50;99.90;;;;;;5052929;28;20028;-54
2022/02/19 03:55:28;;;;;;;13.00;1.80;;;4.60;99.90;;;;;;5053186;28;20021;-54
2022/02/19 03:57:53;;;;;;;13.75;2.35;;;4.50;99.90;;;;;;5053009;28;20074;-54
2022/02/19 04:00:19;;;;;;;17.63;2.10;;;4.50;99.90;;;;;;5053040;28;20032;-54
2022/02/19 04:02:45;;;;;;;12.70;2.08;;;4.50;99.90;;;;;;5052669;28;20448;-54
2022/02/19 04:05:13;;;;;;;15.93;2.05;;;4.50;99.90;;;;;;5052667;28;20100;-55
2022/02/19 04:07:38;;;;;;;13.55;2.35;;;4.50;99.90;;;;;;5052997;28;20474;-54
2022/02/19 04:10:06;;;;;;;7.40;1.27;;;4.50;99.90;;;;;;5052742;28;20025;-54
2022/02/19 04:12:31;;;;;;;13.15;2.28;;;4.50;99.90;;;;;;5051889;28;20032;-54
2022/02/19 04:14:57;;;;;;;11.75;2.33;;;4.50;99.90;;;;;;5053016;28;20070;-54
2022/02/19 04:17:23;;;;;;;13.60;2.53;;;4.40;99.90;;;;;;5053333;28;20060;-54
2022/02/19 04:19:50;;;;;;;14.00;1.92;;;4.40;99.90;;;;;;5052692;28;20032;-54
2022/02/19 04:22:17;;;;;;;14.57;2.30;;;4.40;99.90;;;;;;5052290;28;20025;-54
2022/02/19 04:24:42;;;;;;;18.10;2.38;;;4.40;99.90;;;;;;5052699;28;20101;-54
2022/02/19 04:27:08;;;;;;;18.48;2.67;;;4.40;99.90;;;;;;5052375;28;20037;-54
2022/02/19 04:29:34;;;;;;;15.77;2.47;;;4.40;99.90;;;;;;5052312;28;20077;-54
2022/02/19 04:32:00;;;;;;;15.18;2.20;;;4.40;99.90;;;;;;5052709;28;20207;-53
2022/02/19 04:34:26;;;;;;;17.27;2.88;;;4.40;99.90;;;;;;5052127;28;20529;-53
2022/02/19 04:36:51;;;;;;;10.02;2.00;;;4.40;99.90;;;;;;5052221;28;20032;-54
2022/02/19 04:39:18;;;;;;;18.35;3.05;;;4.50;99.90;;;;;;5052193;28;20025;-54
2022/02/19 04:41:44;;;;;;;16.58;2.95;;;4.40;99.90;;;;;;5052178;28;20091;-54
2022/02/19 04:44:10;;;;;;;18.73;2.22;;;4.50;99.90;;;;;;5052670;28;20017;-54
2022/02/19 04:46:35;;;;;;;11.43;2.30;;;4.50;99.90;;;;;;5052138;28;20364;-54
2022/02/19 04:49:01;;;;;;;16.85;2.28;;;4.50;99.90;;;;;;5051597;28;20504;-54
2022/02/19 04:51:27;;;;;;;13.18;2.50;;;4.50;99.90;;;;;;5051537;28;20410;-54
2022/02/19 04:53:53;;;;;;;16.02;3.17;;;4.50;99.90;;;;;;5052186;28;20025;-54
2022/02/19 04:56:18;;;;;;;14.90;1.90;;;4.50;99.90;;;;;;5052275;28;20025;-54
2022/02/19 04:58:44;;;;;;;11.68;2.22;;;4.50;99.90;;;;;;5052331;28;20032;-54
2022/02/19 05:01:10;;;;;;;13.85;2.78;;;4.50;99.90;;;;;;5051562;28;20025;-53
2022/02/19 05:03:35;;;;;;;16.48;2.28;;;4.60;99.90;;;;;;5052021;28;20021;-54
2022/02/19 05:06:03;;;;;;;16.58;2.60;;;4.60;99.90;;;;;;5051292;28;20119;-54
2022/02/19 05:08:28;;;;;;;16.13;2.22;;;4.60;99.90;;;;;;5051941;28;20035;-54
2022/02/19 05:10:54;;;;;;;13.40;2.25;;;4.60;99.90;;;;;;5051839;28;20474;-54
2022/02/19 05:13:20;;;;;;;9.75;1.90;;;4.60;99.90;;;;;;5051891;28;20296;-55
2022/02/19 05:15:46;;;;;;;11.07;1.77;;;4.60;99.90;;;;;;5051550;28;20486;-54
2022/02/19 05:18:14;;;;;;;15.70;2.63;;;4.60;99.90;;;;;;5050172;28;20113;-54
2022/02/19 05:20:39;;;;;;;16.63;2.38;;;4.60;99.90;;;;;;5049778;28;20013;-54
2022/02/19 05:23:05;;;;;;;11.65;2.15;;;4.60;99.90;;;;;;5052180;28;20382;-54
2022/02/19 05:25:31;;;;;;;14.27;1.95;;;4.60;99.90;;;;;;5051700;28;20063;-54
2022/02/19 05:27:56;;;;;;;19.95;2.63;;;4.60;99.90;;;;;;5050080;28;20067;-54
2022/02/19 05:30:22;;;;;;;15.70;2.35;;;4.60;99.90;;;;;;5051502;28;20445;-54
2022/02/19 05:32:47;;;;;;;11.30;2.40;;;4.50;99.90;;;;;;5051201;28;20547;-54
2022/02/19 05:35:13;;;;;;;15.20;2.60;;;4.50;99.90;;;;;;5051375;28;20394;-54
2022/02/19 05:37:39;;;;;;;13.90;2.08;;;4.40;99.90;;;;;;5051538;28;20126;-54
2022/02/19 05:40:05;;;;;;;12.13;1.85;;;4.40;99.90;;;;;;5051196;28;20044;-54
2022/02/19 05:42:31;;;;;;;13.10;2.13;;;4.40;99.90;;;;;;5051293;28;20102;-53
2022/02/19 05:44:56;;;;;;;14.57;2.25;;;4.30;99.90;;;;;;5051294;28;20489;-53
2022/02/19 05:47:22;;;;;;;17.98;1.92;;;4.30;99.90;;;;;;5051364;28;20063;-53
2022/02/19 05:49:49;;;;;;;18.40;2.70;;;4.30;99.90;;;;;;5051396;28;20032;-54
2022/02/19 05:52:16;;;;;;;16.23;3.03;;;4.30;99.90;;;;;;5051538;28;20021;-54
2022/02/19 05:54:41;;;;;;;17.55;2.97;;;4.30;99.90;;;;;;5051563;28;20033;-53
2022/02/19 05:57:07;;;;;;;17.85;1.88;;;4.20;99.90;;;;;;5051480;28;20048;-54
2022/02/19 05:59:33;;;;;;;15.05;2.03;;;4.20;99.90;;;;;;5051315;28;20037;-54
2022/02/19 06:01:58;;;;;;;12.93;2.15;;;4.20;99.90;;;;;;5053164;28;20057;-53
2022/02/19 06:04:24;;;;;;;20.33;2.60;;;4.20;99.90;;;;;;5055303;28;20112;-54
2022/02/19 06:06:49;;;;;;;13.75;2.47;;;4.10;99.90;;;;;;5054676;28;20496;-54
2022/02/19 06:09:15;;;;;;;22.55;3.15;;;4.10;99.90;;;;;;5053691;28;20078;-54
2022/02/19 06:11:42;;;;;;;15.95;2.22;;;4.00;99.90;;;;;;5054440;28;20039;-54
2022/02/19 06:14:08;;;;;;;23.15;3.83;;;4.00;99.90;;;;;;5055341;28;20025;-53
2022/02/19 06:16:34;;;;;;;21.85;2.45;;;4.00;99.90;;;;;;5055074;28;20393;-54
2022/02/19 06:19:00;;;;;;;20.10;2.63;;;3.90;99.90;;;;;;5054734;28;20025;-54
2022/02/19 06:21:25;;;;;;;18.20;3.13;;;3.90;99.90;;;;;;5054650;28;20035;-54
2022/02/19 06:23:51;;;;;;;13.73;2.47;;;3.90;99.90;;;;;;5055071;28;20119;-54
2022/02/19 06:26:16;;;;;;;20.75;3.15;;;3.80;99.90;;;;;;5054549;28;20071;-54
2022/02/19 06:28:42;;;;;;;26.83;3.72;;;3.80;99.90;;;;;;5054664;28;20428;-54
2022/02/19 06:31:08;;;;;;;19.75;3.22;;;3.70;99.90;;;;;;5054986;28;20052;-54
2022/02/19 06:33:33;;;;;;;27.38;4.45;;;3.70;99.90;;;;;;5055283;28;20029;-54
2022/02/19 06:35:59;;;;;;;18.52;3.30;;;3.70;99.90;;;;;;5054354;28;20029;-54
2022/02/19 06:38:25;;;;;;;22.75;3.13;;;3.70;99.90;;;;;;5054447;28;20116;-54
2022/02/19 06:40:50;;;;;;;16.77;3.50;;;3.60;99.90;;;;;;5054917;28;20573;-54
2022/02/19 06:43:16;;;;;;;23.35;4.45;;;3.60;99.90;;;;;;5054216;28;20175;-55
2022/02/19 06:45:41;;;;;;;22.20;3.65;;;3.60;99.90;;;;;;5052725;28;20127;-54
2022/02/19 06:48:07;;;;;;;28.02;5.00;;;3.60;99.90;;;;;;5054321;28;20067;-54
2022/02/19 06:50:33;;;;;;;21.67;4.20;;;3.60;99.90;;;;;;5054076;28;20021;-54
2022/02/19 06:52:59;;;;;;;23.25;4.68;;;3.60;99.90;;;;;;5052878;28;20043;-54
2022/02/19 06:55:25;;;;;;;25.85;4.95;;;3.60;99.90;;;;;;5054623;28;20017;-54
2022/02/19 06:57:50;;;;;;;25.23;4.50;;;3.60;99.90;;;;;;5054613;28;20063;-55
2022/02/19 07:00:17;;;;;;;23.38;4.30;;;3.70;99.90;;;;;;5053857;28;20033;-54
2022/02/19 07:02:42;;;;;;;24.42;4.85;;;3.70;99.90;;;;;;5054195;28;20049;-55
2022/02/19 07:05:09;;;;;;;18.40;4.22;;;3.70;99.90;;;;;;5053838;28;20052;-54
2022/02/19 07:07:35;;;;;;;19.60;3.65;;;3.80;99.90;;;;;;5053666;28;20102;-54
2022/02/19 07:10:02;;;;;;;25.33;4.80;;;3.80;99.90;;;;;;5053595;28;20035;-54
2022/02/19 07:12:27;;;;;;;31.75;4.78;;;3.80;99.90;;;;;;5053949;28;20452;-54
2022/02/19 07:14:53;;;;;;;28.15;4.97;;;3.70;99.90;;;;;;5053885;28;20021;-54
2022/02/19 07:17:19;;;;;;;22.20;4.18;;;3.70;99.90;;;;;;5053684;28;20017;-54
2022/02/19 07:19:44;;;;;;;16.20;3.60;;;3.80;99.90;;;;;;5053909;28;20509;-54
2022/02/19 07:22:10;;;;;;;24.48;4.03;;;4.00;99.90;;;;;;5053567;28;20479;-54
2022/02/19 07:24:36;;;;;;;22.15;3.70;;;4.00;99.90;;;;;;5053890;28;20495;-54
2022/02/19 07:27:02;;;;;;;18.38;3.65;;;4.10;99.90;;;;;;5053836;28;20029;-54
2022/02/19 07:29:28;;;;;;;24.33;4.13;;;4.10;99.90;;;;;;5053239;28;20041;-55
2022/02/19 07:31:53;;;;;;;15.43;4.22;;;4.10;99.90;;;;;;5053208;28;20032;-54
2022/02/19 07:34:19;;;;;;;29.17;4.80;;;4.10;99.90;;;;;;5052866;28;20079;-54
2022/02/19 07:36:45;;;;;;;20.92;3.40;;;4.10;99.90;;;;;;5052492;28;20064;-55
2022/02/19 07:39:11;;;;;;;30.63;4.65;;;4.00;99.90;;;;;;5052246;28;20032;-54
2022/02/19 07:41:37;;;;;;;22.75;4.00;;;4.10;99.90;;;;;;5053044;28;20100;-54
2022/02/19 07:44:04;;;;;;;18.20;3.83;;;4.10;99.90;;;;;;5052904;28;20033;-54
2022/02/19 07:46:30;;;;;;;17.95;4.13;;;4.20;99.90;;;;;;5053102;28;20465;-54
2022/02/19 07:48:56;;;;;;;22.40;3.30;;;4.30;99.90;;;;;;5053189;28;20025;-54
2022/02/19 07:59:34;;;;;;;19.13;3.90;;;4.50;99.90;;;;;;5052726;28;20039;-54
2022/02/19 08:01:59;;;;;;;30.33;5.75;;;4.60;99.90;;;;;;5053418;28;20108;-55
2022/02/19 08:04:25;;;;;;;26.75;6.07;;;4.70;99.90;;;;;;5053420;28;20016;-55
2022/02/19 08:06:51;;;;;;;22.13;3.83;;;4.70;99.90;;;;;;5051728;28;20028;-54
2022/02/19 08:09:17;;;;;;;13.73;3.40;;;4.70;99.90;;;;;;5053389;28;20025;-54
2022/02/19 08:11:42;;;;;;;18.55;4.00;;;4.80;99.90;;;;;;5053361;28;20032;-54
2022/02/19 08:14:08;;;;;;;23.92;4.00;;;4.90;99.90;;;;;;5052757;28;20021;-54
2022/02/19 08:16:34;;;;;;;17.15;3.92;;;4.90;99.90;;;;;;5052789;28;20025;-55
2022/02/19 08:19:00;;;;;;;19.45;3.55;;;5.00;99.90;;;;;;5053203;28;20033;-54
2022/02/19 08:21:26;;;;;;;15.32;2.10;;;5.00;99.90;;;;;;5052678;28;20054;-55
2022/02/19 08:23:52;;;;;;;8.55;2.17;;;5.10;99.90;;;;;;5052502;28;20127;-55
2022/02/19 08:26:23;;;;;;;11.50;1.88;;;5.20;99.90;;;;;;5052182;28;20111;-54
2022/02/19 08:28:49;;;;;;;22.90;2.97;;;5.20;99.90;;;;;;5052265;28;20032;-54
2022/02/19 08:31:14;;;;;;;21.30;4.15;;;5.40;99.90;;;;;;5052190;28;20053;-54
2022/02/19 08:33:40;;;;;;;18.80;4.65;;;5.90;99.90;;;;;;5052855;28;20029;-55
2022/02/19 08:36:06;;;;;;;18.92;4.00;;;6.50;99.90;;;;;;5051966;28;20028;-55
2022/02/19 08:38:32;;;;;;;13.18;3.28;;;7.00;99.90;;;;;;5052437;28;20029;-55
2022/02/19 08:40:58;;;;;;;15.57;4.00;;;7.30;99.90;;;;;;5052539;28;20027;-54
2022/02/19 08:43:23;;;;;;;11.55;2.25;;;7.60;99.90;;;;;;5052161;28;20037;-54
2022/02/19 08:45:49;;;;;;;9.70;2.50;;;7.80;99.90;;;;;;5051658;28;20478;-54
2022/02/19 08:48:15;;;;;;;13.23;3.05;;;7.60;99.90;;;;;;5052635;28;20021;-54
2022/02/19 08:50:41;;;;;;;14.23;2.33;;;8.00;99.90;;;;;;5052557;28;20036;-55
2022/02/19 08:53:07;;;;;;;12.85;2.75;;;7.90;99.90;;;;;;5052640;28;20020;-54
2022/02/19 08:55:33;;;;;;;15.73;4.05;;;7.90;99.90;;;;;;5052429;28;20107;-55
2022/02/19 08:57:58;;;;;;;14.68;2.83;;;8.30;99.90;;;;;;5052623;28;20063;-54
2022/02/19 09:00:24;;;;;;;11.35;2.05;;;8.30;99.90;;;;;;5052242;28;20478;-54
2022/02/19 09:02:50;;;;;;;17.98;3.78;;;8.10;99.90;;;;;;5052250;28;20147;-55
2022/02/19 09:05:17;;;;;;;16.52;3.08;;;8.00;99.90;;;;;;5052226;28;20108;-54
2022/02/19 09:07:43;;;;;;;14.48;2.60;;;7.70;99.90;;;;;;5051907;28;20107;-54
2022/02/19 09:10:11;;;;;;;15.15;3.45;;;7.40;99.90;;;;;;5051753;28;20059;-54
2022/02/19 09:12:40;;;;;;;13.32;2.78;;;7.30;99.90;;;;;;5052238;28;20158;-54
2022/02/19 09:15:07;;;;;;;13.38;3.42;;;7.60;99.90;;;;;;5052084;28;20032;-54
2022/02/19 09:17:33;;;;;;;17.13;3.95;;;7.60;99.90;;;;;;5051999;28;20450;-55
2022/02/19 09:19:58;;;;;;;16.65;3.47;;;7.90;99.90;;;;;;5052159;28;20112;-54
2022/02/19 09:22:24;;;;;;;17.60;3.75;;;8.00;99.90;;;;;;5061216;28;20049;-55
2022/02/19 09:24:50;;;;;;;18.20;3.97;;;8.00;99.90;;;;;;5053028;28;20021;-54
2022/02/19 09:27:15;;;;;;;6.88;2.75;;;8.20;99.90;;;;;;5051778;28;20022;-54
2022/02/19 09:29:42;;;;;;;13.60;3.10;;;8.50;99.90;;;;;;5052617;28;20057;-54
2022/02/19 09:32:08;;;;;;;13.55;3.03;;;8.30;99.90;;;;;;5051942;28;20056;-53
2022/02/19 09:34:33;;;;;;;12.13;2.85;;;8.00;99.90;;;;;;5052688;28;20503;-55
2022/02/19 09:36:59;;;;;;;14.05;3.45;;;8.20;99.90;;;;;;5054023;28;20428;-54
2022/02/19 09:39:25;;;;;;;11.40;3.17;;;8.10;99.90;;;;;;5055928;28;20481;-54
2022/02/19 09:41:51;;;;;;;13.50;2.13;;;8.00;99.90;;;;;;5055648;28;20195;-54
2022/02/19 09:44:17;;;;;;;15.23;4.28;;;8.10;99.90;;;;;;5056030;28;20021;-53
2022/02/19 09:46:47;;;;;;;14.25;2.58;;;8.40;99.90;;;;;;5056055;28;20028;-54
2022/02/19 09:49:16;;;;;;;9.00;2.17;;;8.60;99.90;;;;;;5055372;28;20033;-55
2022/02/19 09:51:42;;;;;;;15.38;3.10;;;8.30;99.90;;;;;;5055666;28;20036;-54
2022/02/19 09:54:07;;;;;;;10.65;2.53;;;8.50;99.90;;;;;;5055439;28;20253;-54
2022/02/19 09:56:33;;;;;;;15.73;3.55;;;8.90;99.90;;;;;;5054324;28;20485;-54
2022/02/19 09:59:00;;;;;;;12.13;3.40;;;9.10;99.90;;;;;;5055452;28;20025;-54
2022/02/19 10:01:27;;;;;;;12.45;2.63;;;9.00;99.90;;;;;;5055515;28;20071;-55
2022/02/19 10:04:03;;;;;;;13.05;3.42;;;8.90;99.90;;;;;;5055416;28;20417;-55
2022/02/19 10:06:33;;;;;;;11.07;2.67;;;8.80;99.90;;;;;;5055561;28;20027;-55
2022/02/19 10:09:19;;;;;;;11.45;2.78;;;8.90;99.90;;;;;;5055997;28;20067;-54
2022/02/19 10:11:46;;;;;;;12.52;3.42;;;9.30;99.90;;;;;;5055255;28;20056;-55
2022/02/19 10:14:26;;;;;;;11.77;2.90;;;9.30;99.90;;;;;;5055589;28;20021;-55
2022/02/19 10:17:17;;;;;;;14.40;2.72;;;9.50;99.90;;;;;;5054934;28;20039;-54
2022/02/19 10:19:55;;;;;;;12.68;2.55;;;9.30;99.90;;;;;;5055085;28;20025;-54
2022/02/19 10:22:25;;;;;;;8.32;2.15;;;9.10;99.90;;;;;;5054974;28;20079;-54
2022/02/19 10:24:54;;;;;;;12.57;2.45;;;8.90;99.90;;;;;;5055380;28;20017;-55
2022/02/19 10:27:19;;;;;;;14.05;2.53;;;8.80;99.90;;;;;;5054390;28;20025;-54
2022/02/19 10:29:51;;;;;;;8.15;1.75;;;9.10;99.90;;;;;;5054002;28;20111;-54
2022/02/19 10:32:17;;;;;;;8.68;1.83;;;9.20;99.90;;;;;;5053622;28;20534;-54
2022/02/19 10:35:05;;;;;;;13.35;2.47;;;9.50;99.90;;;;;;5053883;28;20024;-55
2022/02/19 10:37:45;;;;;;;9.23;2.45;;;9.70;99.90;;;;;;5054000;28;20020;-55
2022/02/19 10:40:33;;;;;;;8.30;2.10;;;9.90;99.90;;;;;;5053200;28;20033;-55
2022/02/19 10:43:02;;;;;;;8.30;2.53;;;10.20;99.90;;;;;;5053871;28;20025;-55
2022/02/19 10:45:29;;;;;;;6.63;1.52;;;9.90;99.90;;;;;;5053868;28;20040;-55
2022/02/19 10:48:13;;;;;;;6.85;1.63;;;10.00;99.90;;;;;;5053120;28;20028;-55
2022/02/19 10:50:38;;;;;;;8.23;1.38;;;10.00;99.90;;;;;;5053296;28;20299;-55
2022/02/19 10:53:05;;;;;;;7.40;2.35;;;9.90;99.90;;;;;;5053021;28;20029;-55
2022/02/19 10:55:30;;;;;;;12.32;2.40;;;9.90;99.90;;;;;;5054765;28;20035;-55
2022/02/19 10:58:04;;;;;;;10.52;2.60;;;9.70;99.90;;;;;;5060163;28;20033;-55
2022/02/19 11:00:33;;;;;;;11.15;2.55;;;9.90;99.90;;;;;;5058776;28;20021;-58
2022/02/19 11:03:00;;;;;;;13.93;2.65;;;9.90;99.90;;;;;;5053213;28;20032;-55
2022/02/19 11:05:26;;;;;;;12.85;3.00;;;10.80;99.90;;;;;;5053239;28;20475;-55
2022/02/19 11:07:52;;;;;;;9.50;2.40;;;10.60;99.90;;;;;;5053260;28;20025;-55
2022/02/19 11:10:20;;;;;;;10.48;2.47;;;10.80;99.90;;;;;;5053182;28;20029;-54
2022/02/19 11:12:46;;;;;;;5.40;2.00;;;10.60;99.90;;;;;;5054900;28;20033;-55
2022/02/19 11:15:13;;;;;;;8.43;2.22;;;10.40;99.90;;;;;;5055735;28;20437;-55
2022/02/19 11:17:39;;;;;;;12.88;2.70;;;10.30;99.90;;;;;;5052765;28;20044;-56
2022/02/19 11:20:11;;;;;;;7.75;1.92;;;10.60;99.90;;;;;;5052031;28;20017;-55
2022/02/19 11:22:43;;;;;;;9.30;2.75;;;10.90;99.90;;;;;;5052349;28;20083;-55
2022/02/19 11:25:11;;;;;;;7.57;2.70;;;11.20;99.90;;;;;;5052789;28;20048;-55
2022/02/19 11:27:40;;;;;;;9.05;2.03;;;10.80;99.90;;;;;;5052718;28;20470;-60
2022/02/19 11:30:08;;;;;;;8.00;2.20;;;10.80;99.90;;;;;;5013953;28;1106820;-55
2022/02/19 11:32:39;;;;;;;8.55;2.03;;;10.90;99.90;;;;;;5054188;28;20390;-55
2022/02/19 11:35:06;;;;;;;9.80;2.17;;;11.20;99.90;;;;;;5053934;28;20229;-55
2022/02/19 11:37:40;;;;;;;10.88;2.63;;;11.30;99.90;;;;;;5052941;28;20033;-54
2022/02/19 11:40:07;;;;;;;11.98;2.38;;;11.00;99.90;;;;;;5052897;28;20021;-55
2022/02/19 11:42:49;;;;;;;7.38;2.50;;;11.20;99.90;;;;;;5053081;28;20025;-55
2022/02/19 11:45:29;;;;;;;7.57;1.20;;;11.50;99.90;;;;;;5053286;28;20067;-54
2022/02/19 11:48:04;;;;;;;10.23;2.15;;;11.50;99.90;;;;;;5051579;28;20501;-57
2022/02/19 11:50:32;;;;;;;10.60;2.40;;;11.00;99.90;;;;;;5053266;28;20032;-54
2022/02/19 11:53:09;;;;;;;13.60;2.92;;;10.50;99.90;;;;;;5053374;28;20086;-54
2022/02/19 11:55:40;;;;;;;9.88;2.63;;;10.20;99.90;;;;;;5052895;28;20414;-55
2022/02/19 11:58:08;;;;;;;7.75;2.22;;;10.40;99.90;;;;;;5052482;28;20032;-55
2022/02/19 12:01:17;;;;;;;12.40;2.75;;;10.80;99.90;;;;;;5051940;28;20040;-55
2022/02/19 12:03:43;;;;;;;12.00;2.75;;;10.20;99.90;;;;;;5029689;28;20022;-54
2022/02/19 12:06:14;;;;;;;8.65;2.55;;;10.30;99.90;;;;;;5047805;28;20056;-55
2022/02/19 12:08:48;;;;;;;14.57;2.63;;;10.40;99.90;;;;;;5052190;28;20024;-54
2022/02/19 12:11:16;;;;;;;9.70;2.15;;;10.30;99.90;;;;;;5051712;28;20021;-55
2022/02/19 12:13:52;;;;;;;9.95;2.33;;;10.20;99.90;;;;;;5052346;28;20108;-54
2022/02/19 12:16:39;;;;;;;12.15;2.83;;;10.00;99.90;;;;;;5052397;28;20025;-54
2022/02/19 12:19:10;;;;;;;8.55;2.10;;;9.60;99.90;;;;;;5052703;28;20032;-54
2022/02/19 12:21:46;;;;;;;9.98;2.35;;;10.10;99.90;;;;;;5059642;28;20037;-54
2022/02/19 12:24:14;;;;;;;19.45;3.05;;;10.00;99.90;;;;;;5052674;28;20040;-55
2022/02/19 12:26:55;;;;;;;19.30;2.85;;;10.00;99.90;;;;;;5052452;28;20025;-54
2022/02/19 12:29:32;;;;;;;13.52;2.50;;;10.00;99.90;;;;;;5052201;28;20056;-54
2022/02/19 12:32:04;;;;;;;10.48;2.45;;;10.10;99.90;;;;;;5052220;28;20039;-55
2022/02/19 12:34:35;;;;;;;9.63;2.70;;;10.70;99.90;;;;;;5052046;28;20083;-54
2022/02/19 12:37:02;;;;;;;10.73;2.40;;;10.80;99.90;;;;;;5051996;28;20029;-54
2022/02/19 12:39:28;;;;;;;10.63;2.30;;;10.70;99.90;;;;;;5051915;28;20040;-55
2022/02/19 12:41:58;;;;;;;12.63;2.45;;;10.50;99.90;;;;;;5051694;28;20024;-55
2022/02/19 12:44:24;;;;;;;6.80;1.52;;;10.20;99.90;;;;;;5052458;28;20124;-55
2022/02/19 12:46:55;;;;;;;15.10;3.47;;;10.10;99.90;;;;;;5052717;28;20059;-54
2022/02/19 12:49:23;;;;;;;6.97;1.55;;;9.60;99.90;;;;;;5053130;28;20513;-55
2022/02/19 12:51:57;;;;;;;10.23;2.88;;;9.30;99.90;;;;;;5052480;28;20048;-55
2022/02/19 12:54:40;;;;;;;13.10;2.25;;;9.10;99.90;;;;;;5052172;28;20505;-54
2022/02/19 12:57:09;;;;;;;11.85;2.00;;;9.00;99.90;;;;;;5052396;28;20402;-54